Pagina principale
METAR-TAF:

METAR-TAF

Aeroporti :

Forlì, Italia

Aeroporto di Forlì

latitudine: 44-12N, longitudine: 012-04E, altezza: 27 m

Osservazione

Il bollettino è stato emesso 1 ora e 13 minuti fa, alle 11:50 UTC
Vento 1 kt da direzioni variabili
Temperature 5°C
Umidità 81%
Pressione 1010 hPa
Visibilità: 3000 m
Nuvoloso ad un'altezza di 700 ft
foschia

METAR: LIPK 161150Z VRB01KT 3000 BR BKN007 05/02 Q1010

Ora: 14:03 (13:03 UTC)


TAF: mancante

Osservazioni e previsioni meteorologiche di più di 4000 aeroporti (messaggi METAR e TAF).

Le stazioni disponibili sono rappresentate dai dischi gialli e rossi sulla carta.

Puntare il mouse per vedere il nome della stazione.

Clicca sopra per visualizzare le osservazioni e previsioni meteorologiche.

Per cambiare la mappa : fare clic sui pulsanti verdi con una croce nera per ingrandire, il pulsante verde con un trattino per diminuire, o sulla freccia verde per le mappe adiacenti.


METAR-TAF: